Time;durP1;ratioP1;P1;durP2;ratioP2;P2;SDS_P1;SDS_P2;PMS_P1;PMS_P2;Temp;Humidity;BMP_temperature;BMP_pressure;BME280_temperature;BME280_humidity;BME280_pressure;Samples;Min_cycle;Max_cycle;Signal;HPM_P1;HPM_P2
2022/08/15 00:00:17;;;;;;;8.18;3.08;;;;;;;;;;5008388;28;20109;-85
2022/08/15 00:02:44;;;;;;;4.18;3.17;;;;;;;;;;5006872;28;20447;-83
2022/08/15 00:05:14;;;;;;;6.45;3.63;;;;;;;;;;5001142;28;20044;-84
2022/08/15 00:07:40;;;;;;;6.70;3.00;;;;;;;;;;5006425;28;20038;-84
2022/08/15 00:10:07;;;;;;;5.55;3.30;;;;;;;;;;4996953;28;20042;-83
2022/08/15 00:12:34;;;;;;;4.72;3.30;;;;;;;;;;4999707;28;20030;-84
2022/08/15 00:15:00;;;;;;;6.47;3.72;;;;;;;;;;5000062;28;20453;-83
2022/08/15 00:17:25;;;;;;;6.35;3.90;;;;;;;;;;5000263;28;20111;-83
2022/08/15 00:19:51;;;;;;;9.10;4.43;;;;;;;;;;5003682;28;20041;-84
2022/08/15 00:22:17;;;;;;;11.02;5.57;;;;;;;;;;5001934;28;20456;-82
2022/08/15 00:24:45;;;;;;;7.00;5.07;;;;;;;;;;4996734;28;20033;-84
2022/08/15 00:27:11;;;;;;;7.35;5.18;;;;;;;;;;4998260;28;20478;-82
2022/08/15 00:29:37;;;;;;;6.90;5.00;;;;;;;;;;5005426;28;20039;-82
2022/08/15 00:32:09;;;;;;;7.90;4.57;;;;;;;;;;4997541;28;20490;-82
2022/08/15 00:34:35;;;;;;;7.65;4.95;;;;;;;;;;5003345;28;20049;-81
2022/08/15 00:37:01;;;;;;;7.63;5.03;;;;;;;;;;4998560;28;20418;-82
2022/08/15 00:39:28;;;;;;;6.57;5.00;;;;;;;;;;5000621;28;20876;-82
2022/08/15 00:41:57;;;;;;;5.72;4.15;;;;;;;;;;5000753;28;20022;-84
2022/08/15 00:44:25;;;;;;;;;;;;;;;;;;5006099;28;20160;-84
2022/08/15 00:46:58;;;;;;;8.25;5.88;;;;;;;;;;5006300;28;20270;-83
2022/08/15 00:49:26;;;;;;;6.38;5.20;;;;;;;;;;5002163;28;20029;-83
2022/08/15 00:52:03;;;;;;;9.88;5.65;;;;;;;;;;5005712;28;20442;-82
2022/08/15 00:54:57;;;;;;;7.78;5.82;;;;;;;;;;4998706;28;20027;-82
2022/08/15 00:57:29;;;;;;;7.85;5.95;;;;;;;;;;4995624;28;20104;-84
2022/08/15 00:59:59;;;;;;;7.82;5.22;;;;;;;;;;5001016;28;20038;-83
2022/08/15 01:02:30;;;;;;;8.73;6.13;;;;;;;;;;5000210;28;20108;-82
2022/08/15 01:04:57;;;;;;;8.88;5.97;;;;;;;;;;5008992;28;20029;-83
2022/08/15 01:07:23;;;;;;;9.55;5.95;;;;;;;;;;4998554;28;20026;-86
2022/08/15 01:09:49;;;;;;;8.80;6.68;;;;;;;;;;5000127;28;20194;-85
2022/08/15 01:12:22;;;;;;;9.02;5.97;;;;;;;;;;4997734;28;20482;-83
2022/08/15 01:14:51;;;;;;;8.90;6.20;;;;;;;;;;4997962;28;20042;-83
2022/08/15 01:17:18;;;;;;;9.80;7.10;;;;;;;;;;4998107;28;20042;-81
2022/08/15 01:19:52;;;;;;;9.65;6.88;;;;;;;;;;5004982;28;20034;-84
2022/08/15 01:22:35;;;;;;;8.95;6.00;;;;;;;;;;4996657;28;20030;-84
2022/08/15 01:25:09;;;;;;;7.03;4.88;;;;;;;;;;4991981;28;20037;-82
2022/08/15 01:28:01;;;;;;;6.93;5.20;;;;;;;;;;4997470;28;20021;-83
2022/08/15 01:30:31;;;;;;;6.65;4.20;;;;;;;;;;5003237;28;20040;-83
2022/08/15 01:32:56;;;;;;;;;;;;;;;;;;4996588;28;20077;-84
2022/08/15 01:35:22;;;;;;;5.55;3.65;;;;;;;;;;4996944;28;19918;-84
2022/08/15 01:37:50;;;;;;;5.70;3.95;;;;;;;;;;5002111;28;20038;-82
2022/08/15 01:41:01;;;;;;;6.70;4.05;;;;;;;;;;5001193;28;20029;-84
2022/08/15 01:43:30;;;;;;;6.80;3.85;;;;;;;;;;4981156;28;20054;-84
2022/08/15 01:46:00;;;;;;;5.55;4.20;;;;;;;;;;4995306;28;20036;-83
2022/08/15 01:48:32;;;;;;;6.72;4.13;;;;;;;;;;5001280;28;20048;-84
2022/08/15 01:51:01;;;;;;;6.75;4.28;;;;;;;;;;5002494;28;20414;-84
2022/08/15 01:53:39;;;;;;;5.88;4.13;;;;;;;;;;4990939;28;20505;-83
2022/08/15 01:56:18;;;;;;;6.50;3.70;;;;;;;;;;4999113;28;20085;-83
2022/08/15 01:58:45;;;;;;;6.28;4.15;;;;;;;;;;4998329;28;20032;-83
2022/08/15 02:01:16;;;;;;;6.10;4.18;;;;;;;;;;4993120;28;20038;-83
2022/08/15 02:03:44;;;;;;;6.30;4.00;;;;;;;;;;4999341;28;20043;-83
2022/08/15 02:06:25;;;;;;;6.20;4.43;;;;;;;;;;5001759;28;20112;-83
2022/08/15 02:08:55;;;;;;;6.40;4.88;;;;;;;;;;4995447;28;20029;-83
2022/08/15 02:11:24;;;;;;;9.52;4.55;;;;;;;;;;4998202;28;20029;-85
2022/08/15 02:13:54;;;;;;;6.77;4.97;;;;;;;;;;4997952;28;20475;-83
2022/08/15 02:16:20;;;;;;;6.85;4.20;;;;;;;;;;5001164;28;20259;-86
2022/08/15 02:18:47;;;;;;;8.00;5.25;;;;;;;;;;5002480;28;20032;-82
2022/08/15 02:21:12;;;;;;;6.07;4.15;;;;;;;;;;4997502;28;20022;-84
2022/08/15 02:23:38;;;;;;;6.95;4.20;;;;;;;;;;5001846;28;20040;-83
2022/08/15 02:26:05;;;;;;;5.75;4.10;;;;;;;;;;5000426;28;20025;-84
2022/08/15 02:28:31;;;;;;;6.95;4.32;;;;;;;;;;4997435;28;20033;-84
2022/08/15 02:30:56;;;;;;;7.57;5.32;;;;;;;;;;4997644;28;20031;-84
2022/08/15 02:33:22;;;;;;;7.28;4.80;;;;;;;;;;4997533;28;20493;-84
2022/08/15 02:35:48;;;;;;;8.63;4.53;;;;;;;;;;4998577;28;20371;-83
2022/08/15 02:38:14;;;;;;;9.98;5.63;;;;;;;;;;5001536;28;20054;-81
2022/08/15 02:40:39;;;;;;;7.53;5.20;;;;;;;;;;5002833;28;20485;-85
2022/08/15 02:43:09;;;;;;;8.38;5.22;;;;;;;;;;4994440;28;20113;-84
2022/08/15 02:45:39;;;;;;;7.13;5.40;;;;;;;;;;4998953;28;20494;-83
2022/08/15 02:48:06;;;;;;;6.55;4.57;;;;;;;;;;4994532;28;20456;-83
2022/08/15 02:50:35;;;;;;;7.85;5.43;;;;;;;;;;4999475;28;20038;-84
2022/08/15 02:53:12;;;;;;;9.93;5.70;;;;;;;;;;4998914;28;20034;-83
2022/08/15 02:55:41;;;;;;;7.05;4.70;;;;;;;;;;5006734;28;20120;-83
2022/08/15 02:58:09;;;;;;;12.97;6.57;;;;;;;;;;5001856;28;20041;-84
2022/08/15 03:00:35;;;;;;;9.50;5.63;;;;;;;;;;5006185;28;20024;-85
2022/08/15 03:03:06;;;;;;;9.50;7.25;;;;;;;;;;5001911;28;20474;-83
2022/08/15 03:05:33;;;;;;;8.75;5.82;;;;;;;;;;5007192;28;20037;-82
2022/08/15 03:08:00;;;;;;;10.55;6.43;;;;;;;;;;5004271;28;20087;-84
2022/08/15 03:10:26;;;;;;;10.02;6.50;;;;;;;;;;5002872;28;20029;-84
2022/08/15 03:13:04;;;;;;;11.35;7.00;;;;;;;;;;5005367;28;20035;-82
2022/08/15 03:15:42;;;;;;;11.73;8.05;;;;;;;;;;5001062;28;20505;-83
2022/08/15 03:18:08;;;;;;;15.27;9.85;;;;;;;;;;5003005;28;20049;-82
2022/08/15 03:20:35;;;;;;;14.27;8.57;;;;;;;;;;4999519;28;20076;-83
2022/08/15 03:23:04;;;;;;;13.02;9.45;;;;;;;;;;5003256;28;20372;-82
2022/08/15 03:25:30;;;;;;;17.60;11.30;;;;;;;;;;5003188;28;20047;-82
2022/08/15 03:27:56;;;;;;;15.20;10.10;;;;;;;;;;5000445;28;20026;-83
2022/08/15 03:30:22;;;;;;;15.30;9.52;;;;;;;;;;5002980;28;20021;-83
2022/08/15 03:32:49;;;;;;;11.20;8.18;;;;;;;;;;5002057;28;20050;-83
2022/08/15 03:35:17;;;;;;;9.30;6.97;;;;;;;;;;5000454;28;20060;-84
2022/08/15 03:37:43;;;;;;;9.98;6.72;;;;;;;;;;5004832;28;20478;-82
2022/08/15 03:40:10;;;;;;;9.75;5.88;;;;;;;;;;4995091;28;20026;-83
2022/08/15 03:42:35;;;;;;;8.18;6.13;;;;;;;;;;4998461;28;20034;-82
2022/08/15 03:45:09;;;;;;;8.98;6.68;;;;;;;;;;5003125;28;20080;-83
2022/08/15 03:47:36;;;;;;;8.77;6.07;;;;;;;;;;5005774;28;20641;-84
2022/08/15 03:50:03;;;;;;;10.52;6.75;;;;;;;;;;5003848;28;20344;-83
2022/08/15 03:52:29;;;;;;;7.10;5.10;;;;;;;;;;4999442;28;20043;-84
2022/08/15 03:54:54;;;;;;;9.52;5.60;;;;;;;;;;5000190;28;20038;-84
2022/08/15 03:57:20;;;;;;;9.82;5.47;;;;;;;;;;5008216;28;20026;-83
2022/08/15 03:59:46;;;;;;;7.43;4.50;;;;;;;;;;4998664;28;20026;-84
2022/08/15 04:02:12;;;;;;;7.07;4.57;;;;;;;;;;4998842;28;20058;-84
2022/08/15 04:04:37;;;;;;;8.80;4.65;;;;;;;;;;5000468;28;20390;-83
2022/08/15 04:07:03;;;;;;;6.18;3.85;;;;;;;;;;4994259;28;20041;-84
2022/08/15 04:09:29;;;;;;;7.63;4.70;;;;;;;;;;4997913;28;20063;-82
2022/08/15 04:11:55;;;;;;;6.57;4.93;;;;;;;;;;5002946;28;20030;-84
2022/08/15 04:14:21;;;;;;;6.55;4.60;;;;;;;;;;4999610;28;20030;-83
2022/08/15 04:16:47;;;;;;;6.70;4.95;;;;;;;;;;5007819;28;20026;-84
2022/08/15 04:19:15;;;;;;;5.03;3.78;;;;;;;;;;5006469;28;20038;-83
2022/08/15 04:21:41;;;;;;;12.00;8.07;;;;;;;;;;5003982;28;20434;-83
2022/08/15 04:24:07;;;;;;;12.05;8.52;;;;;;;;;;5002017;28;20033;-84
2022/08/15 04:26:34;;;;;;;8.50;5.68;;;;;;;;;;4998631;28;20030;-84
2022/08/15 04:28:59;;;;;;;10.38;5.60;;;;;;;;;;4999267;28;20030;-82
2022/08/15 04:31:25;;;;;;;9.25;5.57;;;;;;;;;;5004853;28;20398;-83
2022/08/15 04:33:50;;;;;;;8.77;5.40;;;;;;;;;;4997220;28;20081;-83
2022/08/15 04:36:18;;;;;;;7.45;5.22;;;;;;;;;;5000571;28;20104;-83
2022/08/15 04:38:44;;;;;;;8.98;5.85;;;;;;;;;;5001212;28;20494;-83
2022/08/15 04:41:11;;;;;;;7.85;5.70;;;;;;;;;;5001717;28;20018;-84
2022/08/15 04:43:39;;;;;;;8.57;5.88;;;;;;;;;;4996155;28;20041;-84
2022/08/15 04:46:05;;;;;;;7.50;5.40;;;;;;;;;;5001030;28;20030;-83
2022/08/15 04:48:31;;;;;;;7.60;5.15;;;;;;;;;;5007207;28;20390;-83
2022/08/15 04:50:59;;;;;;;9.88;6.25;;;;;;;;;;5001078;28;20022;-83
2022/08/15 04:53:27;;;;;;;9.18;5.57;;;;;;;;;;4998243;28;20439;-82
2022/08/15 04:55:54;;;;;;;10.82;5.75;;;;;;;;;;5005631;28;20037;-83
2022/08/15 04:58:19;;;;;;;9.02;6.15;;;;;;;;;;4993536;28;20479;-82
2022/08/15 05:00:54;;;;;;;11.27;7.22;;;;;;;;;;4993604;28;20029;-84
2022/08/15 05:03:20;;;;;;;9.50;6.50;;;;;;;;;;5003739;28;20116;-83
2022/08/15 05:05:49;;;;;;;18.58;12.40;;;;;;;;;;4997376;28;20483;-83
2022/08/15 05:08:15;;;;;;;15.77;10.48;;;;;;;;;;4996653;28;20030;-83
2022/08/15 05:10:42;;;;;;;27.48;17.52;;;;;;;;;;4994411;28;20507;-82
2022/08/15 05:13:13;;;;;;;24.40;17.40;;;;;;;;;;4993630;28;20026;-84
2022/08/15 05:15:40;;;;;;;33.80;22.52;;;;;;;;;;4998736;28;20025;-84
2022/08/15 05:18:05;;;;;;;25.52;16.45;;;;;;;;;;4993002;28;20050;-82
2022/08/15 05:20:31;;;;;;;25.88;18.30;;;;;;;;;;4998351;28;20069;-83
2022/08/15 05:23:00;;;;;;;28.73;18.25;;;;;;;;;;5006824;28;20026;-84
2022/08/15 05:25:25;;;;;;;25.00;16.02;;;;;;;;;;4996872;28;20026;-83
2022/08/15 05:27:52;;;;;;;26.63;17.35;;;;;;;;;;4997272;28;20046;-83
2022/08/15 05:30:19;;;;;;;22.75;15.68;;;;;;;;;;4996321;28;20034;-82
2022/08/15 05:32:45;;;;;;;23.88;16.00;;;;;;;;;;4996475;28;20050;-83
2022/08/15 05:35:11;;;;;;;23.05;16.85;;;;;;;;;;4997466;28;20030;-85
2022/08/15 05:37:37;;;;;;;22.45;16.42;;;;;;;;;;4998069;28;20092;-85
2022/08/15 05:40:06;;;;;;;25.15;17.25;;;;;;;;;;5002595;28;20041;-82
2022/08/15 05:42:54;;;;;;;23.48;16.65;;;;;;;;;;4999413;28;20014;-81
2022/08/15 05:46:04;;;;;;;25.55;16.77;;;;;;;;;;5006765;28;20030;-86
2022/08/15 05:48:32;;;;;;;22.67;16.25;;;;;;;;;;4996053;28;20551;-82
2022/08/15 05:51:22;;;;;;;23.73;16.17;;;;;;;;;;4999970;28;20026;-82
2022/08/15 05:54:03;;;;;;;25.50;17.65;;;;;;;;;;5002875;28;20119;-85
2022/08/15 05:56:55;;;;;;;22.88;16.83;;;;;;;;;;4996142;28;20085;-83
2022/08/15 05:59:29;;;;;;;22.40;16.42;;;;;;;;;;4996041;28;20532;-83
2022/08/15 06:02:01;;;;;;;26.20;18.05;;;;;;;;;;5003076;28;20479;-81
2022/08/15 06:04:53;;;;;;;25.02;17.27;;;;;;;;;;5001226;28;20023;-81
2022/08/15 06:07:20;;;;;;;24.05;17.80;;;;;;;;;;5002952;28;20026;-82
2022/08/15 06:09:59;;;;;;;24.55;18.33;;;;;;;;;;5005878;28;20033;-81
2022/08/15 06:12:28;;;;;;;;;;;;;;;;;;5018138;28;20026;-82
2022/08/15 06:15:02;;;;;;;24.50;15.63;;;;;;;;;;5000092;28;19957;-82
2022/08/15 06:17:39;;;;;;;25.30;18.25;;;;;;;;;;4996414;28;20022;-83
2022/08/15 06:20:07;;;;;;;23.70;17.20;;;;;;;;;;4997933;28;20502;-83
2022/08/15 06:23:23;;;;;;;24.65;17.10;;;;;;;;;;5002945;28;20438;-84
2022/08/15 06:26:14;;;;;;;26.45;16.25;;;;;;;;;;4946374;28;20031;-85
2022/08/15 06:28:57;;;;;;;24.65;17.98;;;;;;;;;;4961544;28;20387;-85
2022/08/15 06:31:34;;;;;;;21.50;16.20;;;;;;;;;;4986824;28;20041;-84
2022/08/15 06:34:24;;;;;;;26.13;17.92;;;;;;;;;;5000936;28;20058;-84
2022/08/15 06:37:02;;;;;;;24.55;17.77;;;;;;;;;;5000520;28;20112;-84
2022/08/15 06:39:31;;;;;;;24.58;17.73;;;;;;;;;;4998377;28;20382;-84
2022/08/15 06:42:16;;;;;;;23.07;17.80;;;;;;;;;;4992881;28;20018;-84
2022/08/15 06:44:42;;;;;;;26.48;18.20;;;;;;;;;;4995509;28;20606;-84
2022/08/15 06:47:08;;;;;;;24.73;18.00;;;;;;;;;;5002603;28;20049;-83
2022/08/15 06:49:38;;;;;;;24.92;18.35;;;;;;;;;;5000232;28;20398;-85
2022/08/15 06:52:05;;;;;;;24.52;16.83;;;;;;;;;;5010955;28;20034;-85
2022/08/15 06:54:32;;;;;;;21.13;16.33;;;;;;;;;;4996314;28;20040;-84
2022/08/15 06:57:08;;;;;;;24.98;18.77;;;;;;;;;;5003850;28;20080;-84
2022/08/15 06:59:53;;;;;;;23.48;17.73;;;;;;;;;;5003936;28;20061;-85
2022/08/15 07:02:21;;;;;;;25.73;17.08;;;;;;;;;;5000363;28;20018;-82
2022/08/15 07:05:20;;;;;;;23.00;18.25;;;;;;;;;;4996239;28;20026;-82
2022/08/15 07:07:48;;;;;;;26.13;17.08;;;;;;;;;;5002764;28;20045;-81
2022/08/15 07:10:24;;;;;;;21.98;16.42;;;;;;;;;;5002611;28;20034;-83
2022/08/15 07:12:54;;;;;;;22.15;18.55;;;;;;;;;;5002760;28;20391;-88
2022/08/15 07:15:42;;;;;;;24.38;18.65;;;;;;;;;;5001389;28;20057;-84
2022/08/15 07:18:16;;;;;;;23.65;17.63;;;;;;;;;;4999565;28;20523;-80
2022/08/15 07:20:41;;;;;;;24.58;18.98;;;;;;;;;;4996345;28;20530;-83
2022/08/15 07:23:19;;;;;;;28.27;20.70;;;;;;;;;;4999463;28;20113;-82
2022/08/15 07:25:48;;;;;;;23.55;17.02;;;;;;;;;;4995433;28;20034;-83
2022/08/15 07:28:17;;;;;;;24.40;18.33;;;;;;;;;;4998547;28;20037;-83
2022/08/15 07:30:57;;;;;;;24.88;18.00;;;;;;;;;;4994915;28;20034;-82
2022/08/15 07:33:32;;;;;;;25.38;18.60;;;;;;;;;;5000264;28;20053;-82
2022/08/15 07:36:15;;;;;;;22.42;17.45;;;;;;;;;;5000061;28;20026;-82
2022/08/15 07:38:41;;;;;;;22.13;18.15;;;;;;;;;;5001588;28;20026;-83
2022/08/15 07:41:22;;;;;;;27.23;18.67;;;;;;;;;;4998493;28;20033;-80
2022/08/15 07:43:52;;;;;;;24.27;17.08;;;;;;;;;;5001497;28;20505;-83
2022/08/15 07:46:22;;;;;;;23.60;17.75;;;;;;;;;;5002139;28;20045;-83
2022/08/15 07:49:07;;;;;;;25.33;18.98;;;;;;;;;;4997922;28;20550;-81
2022/08/15 07:51:46;;;;;;;22.00;17.65;;;;;;;;;;4999207;28;20791;-81
2022/08/15 07:54:42;;;;;;;21.90;16.08;;;;;;;;;;5004872;28;20026;-83
2022/08/15 07:57:36;;;;;;;22.80;17.35;;;;;;;;;;4998663;28;20033;-83
2022/08/15 08:00:07;;;;;;;26.15;18.65;;;;;;;;;;5000959;28;20026;-82
2022/08/15 08:02:58;;;;;;;22.23;17.42;;;;;;;;;;4996615;28;20434;-83
2022/08/15 08:05:27;;;;;;;21.23;15.98;;;;;;;;;;4990023;28;20376;-86
2022/08/15 08:07:54;;;;;;;20.52;16.38;;;;;;;;;;4998617;28;20501;-83
2022/08/15 08:10:31;;;;;;;23.70;17.90;;;;;;;;;;5000330;28;20045;-83
2022/08/15 08:13:08;;;;;;;23.08;17.25;;;;;;;;;;4999608;28;20493;-84
2022/08/15 08:15:34;;;;;;;19.92;16.95;;;;;;;;;;5000231;28;20497;-83
2022/08/15 08:18:15;;;;;;;22.13;18.35;;;;;;;;;;4993130;28;20026;-85
2022/08/15 08:20:51;;;;;;;20.70;16.17;;;;;;;;;;4997920;28;20049;-85
2022/08/15 08:23:32;;;;;;;22.23;15.82;;;;;;;;;;4995272;28;20019;-86
2022/08/15 08:26:15;;;;;;;21.55;17.17;;;;;;;;;;4994193;28;20036;-87
2022/08/15 08:28:47;;;;;;;20.85;16.35;;;;;;;;;;4995771;28;20463;-83
2022/08/15 08:31:21;;;;;;;19.90;15.65;;;;;;;;;;4999625;28;20037;-84
2022/08/15 08:33:53;;;;;;;19.15;15.20;;;;;;;;;;4998377;28;20073;-82
2022/08/15 08:36:31;;;;;;;18.77;15.98;;;;;;;;;;5001474;28;20030;-85
2022/08/15 08:39:09;;;;;;;21.08;15.18;;;;;;;;;;4994048;28;20433;-89
2022/08/15 08:41:58;;;;;;;16.15;13.57;;;;;;;;;;4994025;28;20058;-82
2022/08/15 08:44:27;;;;;;;16.75;13.88;;;;;;;;;;4998416;28;20035;-83
2022/08/15 08:47:12;;;;;;;14.50;12.38;;;;;;;;;;4999584;28;20030;-84
2022/08/15 08:49:47;;;;;;;18.05;13.63;;;;;;;;;;5008938;28;20109;-84
2022/08/15 08:52:32;;;;;;;19.48;14.77;;;;;;;;;;5002853;28;20381;-85
2022/08/15 08:55:06;;;;;;;19.00;15.13;;;;;;;;;;4998415;28;20104;-88
2022/08/15 08:57:36;;;;;;;17.23;14.63;;;;;;;;;;5001234;28;20136;-90
2022/08/15 09:00:15;;;;;;;17.88;15.30;;;;;;;;;;4999325;28;20127;-86
2022/08/15 09:02:49;;;;;;;18.25;14.20;;;;;;;;;;4998241;28;20044;-86
2022/08/15 09:05:28;;;;;;;18.85;15.48;;;;;;;;;;5002389;28;20026;-82
2022/08/15 09:07:59;;;;;;;14.70;12.82;;;;;;;;;;4998884;28;21741;-86
2022/08/15 09:10:31;;;;;;;18.38;15.25;;;;;;;;;;5004271;28;20497;-86
2022/08/15 09:15:46;;;;;;;15.32;12.63;;;;;;;;;;4992401;28;20096;-84
2022/08/15 09:18:18;;;;;;;14.63;12.75;;;;;;;;;;4996718;28;20335;-84
2022/08/15 09:20:43;;;;;;;17.83;13.73;;;;;;;;;;5000617;28;20028;-86
2022/08/15 09:23:12;;;;;;;15.98;13.80;;;;;;;;;;4996412;28;20097;-83
2022/08/15 09:25:47;;;;;;;14.75;13.13;;;;;;;;;;4998387;28;20057;-86
2022/08/15 09:28:18;;;;;;;16.60;13.35;;;;;;;;;;5006675;28;20030;-85
2022/08/15 09:30:46;;;;;;;16.67;14.75;;;;;;;;;;4998099;28;20442;-85
2022/08/15 09:33:42;;;;;;;17.00;13.60;;;;;;;;;;5001098;28;20158;-85
2022/08/15 09:36:26;;;;;;;17.17;14.68;;;;;;;;;;4995790;28;20026;-86
2022/08/15 09:39:25;;;;;;;17.10;13.32;;;;;;;;;;5010383;28;20029;-85
2022/08/15 09:42:04;;;;;;;15.45;13.05;;;;;;;;;;4998120;28;20089;-85
2022/08/15 09:44:47;;;;;;;17.15;14.02;;;;;;;;;;4993479;28;20042;-85
2022/08/15 09:47:45;;;;;;;13.98;12.05;;;;;;;;;;4997973;28;20036;-85
2022/08/15 09:50:16;;;;;;;16.25;13.65;;;;;;;;;;4992438;28;20080;-84
2022/08/15 09:53:01;;;;;;;20.02;13.95;;;;;;;;;;4999277;28;20022;-86
2022/08/15 09:55:48;;;;;;;15.48;13.50;;;;;;;;;;5000262;28;20044;-87
2022/08/15 09:58:26;;;;;;;13.48;12.02;;;;;;;;;;4999791;28;20037;-86
2022/08/15 10:01:21;;;;;;;15.85;13.52;;;;;;;;;;4995272;28;20362;-84
2022/08/15 10:03:55;;;;;;;13.43;11.57;;;;;;;;;;4998199;28;20034;-88
2022/08/15 10:06:26;;;;;;;12.68;10.75;;;;;;;;;;5007078;28;20037;-84
2022/08/15 10:08:54;;;;;;;14.20;12.25;;;;;;;;;;5000231;28;20029;-85
2022/08/15 10:11:51;;;;;;;14.25;12.35;;;;;;;;;;4998835;28;20066;-83
2022/08/15 10:14:20;;;;;;;14.20;12.70;;;;;;;;;;4999139;28;20120;-84
2022/08/15 10:16:49;;;;;;;15.60;13.70;;;;;;;;;;5003668;28;20501;-86
2022/08/15 10:19:35;;;;;;;15.73;13.27;;;;;;;;;;5004939;28;20378;-87
2022/08/15 10:22:23;;;;;;;15.93;14.23;;;;;;;;;;5004253;28;20030;-85
2022/08/15 10:25:15;;;;;;;15.00;13.13;;;;;;;;;;5003597;28;20541;-85
2022/08/15 10:28:11;;;;;;;16.35;14.35;;;;;;;;;;4998258;28;20459;-86
2022/08/15 10:30:46;;;;;;;18.40;14.82;;;;;;;;;;5003594;28;20053;-85
2022/08/15 10:33:33;;;;;;;17.33;14.10;;;;;;;;;;5002964;28;20049;-87
2022/08/15 10:36:13;;;;;;;19.63;15.32;;;;;;;;;;5004648;28;20033;-87
2022/08/15 10:38:45;;;;;;;17.88;14.45;;;;;;;;;;5006358;28;20026;-83
2022/08/15 10:41:26;;;;;;;16.23;13.40;;;;;;;;;;5000581;28;20026;-87
2022/08/15 10:44:06;;;;;;;15.13;12.35;;;;;;;;;;5000730;28;20097;-85
2022/08/15 10:46:59;;;;;;;12.20;10.65;;;;;;;;;;5002651;28;20022;-84
2022/08/15 10:49:51;;;;;;;13.73;11.80;;;;;;;;;;5002948;28;20049;-87
2022/08/15 10:52:26;;;;;;;13.07;11.68;;;;;;;;;;5004499;28;20418;-84
2022/08/15 10:55:06;;;;;;;13.60;11.20;;;;;;;;;;5005734;28;20033;-86
2022/08/15 10:57:38;;;;;;;;;;;;;;;;;;5001518;28;20297;-85
2022/08/15 11:00:06;;;;;;;13.13;10.85;;;;;;;;;;5005894;28;19914;-85
2022/08/15 11:02:40;;;;;;;13.40;11.27;;;;;;;;;;4999469;28;20109;-85
2022/08/15 11:05:09;;;;;;;13.40;10.95;;;;;;;;;;4998347;28;20026;-86
2022/08/15 11:07:37;;;;;;;12.93;11.63;;;;;;;;;;5001283;28;20045;-84
2022/08/15 11:10:15;;;;;;;13.75;10.98;;;;;;;;;;5001509;28;20117;-85
2022/08/15 11:12:44;;;;;;;15.68;11.02;;;;;;;;;;5004153;28;20026;-86
2022/08/15 11:15:30;;;;;;;;;;;;;;;;;;5005437;28;20457;-86
2022/08/15 11:18:00;;;;;;;11.13;9.93;;;;;;;;;;5001961;28;19917;-85
2022/08/15 11:20:38;;;;;;;12.27;10.98;;;;;;;;;;5006565;28;20061;-85
2022/08/15 11:23:04;;;;;;;14.55;10.75;;;;;;;;;;5003717;28;20024;-84
2022/08/15 11:25:32;;;;;;;11.75;10.18;;;;;;;;;;5003738;28;20101;-85
2022/08/15 11:28:20;;;;;;;12.85;10.38;;;;;;;;;;4999848;28;20128;-85
2022/08/15 11:30:46;;;;;;;12.00;10.43;;;;;;;;;;5002403;28;20026;-85
2022/08/15 11:33:27;;;;;;;11.07;9.75;;;;;;;;;;5001608;28;20121;-85
2022/08/15 11:36:24;;;;;;;11.68;10.48;;;;;;;;;;4996308;28;20025;-86
2022/08/15 11:38:59;;;;;;;10.75;9.35;;;;;;;;;;5000351;28;20443;-84
2022/08/15 11:41:36;;;;;;;12.02;9.27;;;;;;;;;;5001249;28;20028;-85
2022/08/15 11:44:06;;;;;;;11.50;10.10;;;;;;;;;;5002385;28;20040;-88
2022/08/15 11:46:32;;;;;;;11.20;9.98;;;;;;;;;;5002294;28;20070;-87
2022/08/15 11:49:08;;;;;;;10.32;9.32;;;;;;;;;;5004889;28;20040;-87
2022/08/15 11:51:36;;;;;;;11.45;10.27;;;;;;;;;;4993658;28;20030;-84
2022/08/15 11:54:11;;;;;;;13.18;9.52;;;;;;;;;;4998450;28;20037;-85
2022/08/15 11:56:58;;;;;;;10.80;9.70;;;;;;;;;;4997971;28;20530;-84
2022/08/15 11:59:37;;;;;;;11.55;8.93;;;;;;;;;;5001314;28;20053;-84
2022/08/15 12:02:20;;;;;;;11.07;9.68;;;;;;;;;;5005313;28;20034;-85
2022/08/15 12:04:48;;;;;;;10.38;9.38;;;;;;;;;;4995924;28;20468;-86
2022/08/15 12:07:27;;;;;;;10.93;9.18;;;;;;;;;;5002888;28;20050;-84
2022/08/15 12:09:53;;;;;;;10.25;9.25;;;;;;;;;;5002945;28;20021;-86
2022/08/15 12:12:45;;;;;;;9.48;8.57;;;;;;;;;;4999076;28;20088;-87
2022/08/15 12:15:39;;;;;;;9.43;7.90;;;;;;;;;;5005354;28;20022;-86
2022/08/15 12:18:23;;;;;;;9.88;8.75;;;;;;;;;;5004855;28;20018;-87
2022/08/15 12:20:54;;;;;;;9.23;8.32;;;;;;;;;;4995181;28;20022;-87
2022/08/15 12:23:30;;;;;;;9.30;8.40;;;;;;;;;;4995109;28;20026;-86
2022/08/15 12:26:01;;;;;;;9.50;8.40;;;;;;;;;;4995680;28;20030;-86
2022/08/15 12:28:29;;;;;;;9.60;8.73;;;;;;;;;;5004331;28;20478;-88
2022/08/15 12:31:01;;;;;;;8.65;7.85;;;;;;;;;;5002698;28;20026;-89
2022/08/15 12:33:27;;;;;;;8.43;7.72;;;;;;;;;;4999911;28;20061;-86
2022/08/15 12:35:52;;;;;;;9.85;8.60;;;;;;;;;;4997361;28;20113;-84
2022/08/15 12:38:19;;;;;;;8.63;7.82;;;;;;;;;;5010304;28;20116;-86
2022/08/15 12:40:45;;;;;;;9.82;8.52;;;;;;;;;;5002277;28;20040;-85
2022/08/15 12:43:10;;;;;;;8.30;7.50;;;;;;;;;;5002668;28;21833;-84
2022/08/15 12:45:38;;;;;;;8.00;7.20;;;;;;;;;;4999042;28;20069;-86
2022/08/15 12:48:10;;;;;;;8.20;7.50;;;;;;;;;;5001081;28;20022;-87
2022/08/15 12:50:36;;;;;;;9.00;7.95;;;;;;;;;;4996335;28;20120;-85
2022/08/15 12:53:01;;;;;;;8.45;7.70;;;;;;;;;;4997912;28;20496;-87
2022/08/15 12:55:27;;;;;;;8.73;7.95;;;;;;;;;;4998653;28;20039;-86
2022/08/15 12:57:52;;;;;;;8.07;7.25;;;;;;;;;;4999107;28;20053;-87
2022/08/15 13:00:18;;;;;;;7.68;7.07;;;;;;;;;;5003029;28;20045;-87
2022/08/15 13:02:43;;;;;;;9.27;7.50;;;;;;;;;;5006049;28;20475;-85
2022/08/15 13:05:22;;;;;;;7.93;7.22;;;;;;;;;;4997040;28;20034;-86
2022/08/15 13:07:47;;;;;;;8.02;7.28;;;;;;;;;;5000828;28;20041;-86
2022/08/15 13:10:17;;;;;;;7.82;6.90;;;;;;;;;;4999838;28;20025;-89
2022/08/15 13:12:43;;;;;;;8.68;7.50;;;;;;;;;;4998960;28;20378;-85
2022/08/15 13:15:08;;;;;;;8.43;6.28;;;;;;;;;;4993520;28;20033;-86
2022/08/15 13:17:34;;;;;;;8.30;7.55;;;;;;;;;;4997617;28;20037;-86
2022/08/15 13:25:28;;;;;;;7.60;6.85;;;;;;;;;;4993603;28;20505;-86
2022/08/15 13:27:54;;;;;;;7.75;7.05;;;;;;;;;;5000615;28;20104;-87
2022/08/15 13:30:21;;;;;;;8.35;7.40;;;;;;;;;;5000690;28;20056;-87
2022/08/15 13:32:48;;;;;;;8.02;7.15;;;;;;;;;;5000239;28;20402;-87
2022/08/15 13:35:15;;;;;;;8.10;7.30;;;;;;;;;;5003625;28;20057;-92
2022/08/15 13:37:42;;;;;;;7.10;6.47;;;;;;;;;;5000988;28;20104;-82
2022/08/15 13:40:13;;;;;;;7.88;7.18;;;;;;;;;;4994906;28;20161;-88
2022/08/15 13:42:39;;;;;;;7.47;6.43;;;;;;;;;;4996128;28;20027;-86
2022/08/15 13:45:05;;;;;;;6.78;6.18;;;;;;;;;;5004956;28;20022;-86
2022/08/15 13:47:31;;;;;;;7.00;6.40;;;;;;;;;;5003592;28;20072;-89
2022/08/15 13:50:00;;;;;;;6.97;6.28;;;;;;;;;;5000334;28;20525;-86
2022/08/15 13:52:26;;;;;;;6.80;6.20;;;;;;;;;;5002041;28;20034;-88
2022/08/15 13:54:51;;;;;;;6.47;5.88;;;;;;;;;;5003150;28;20038;-86
2022/08/15 13:57:21;;;;;;;8.38;6.60;;;;;;;;;;5000267;28;20486;-87
2022/08/15 13:59:48;;;;;;;7.20;6.50;;;;;;;;;;4995946;28;20046;-85
2022/08/15 14:02:15;;;;;;;6.22;5.72;;;;;;;;;;4992915;28;20109;-87
2022/08/15 14:04:47;;;;;;;6.20;5.70;;;;;;;;;;4994972;28;20049;-86
2022/08/15 14:07:30;;;;;;;6.63;6.03;;;;;;;;;;5002264;28;20061;-87
2022/08/15 14:10:22;;;;;;;7.20;6.22;;;;;;;;;;4984245;28;20033;-87
2022/08/15 14:12:51;;;;;;;7.00;6.30;;;;;;;;;;5000404;28;20026;-83
2022/08/15 14:15:18;;;;;;;7.00;6.32;;;;;;;;;;4995082;28;20431;-84
2022/08/15 14:18:16;;;;;;;6.15;5.65;;;;;;;;;;4997229;28;20042;-86
2022/08/15 14:20:42;;;;;;;6.68;6.07;;;;;;;;;;4929913;29;20047;-85
2022/08/15 14:23:09;;;;;;;7.22;6.53;;;;;;;;;;4957799;28;20032;-85
2022/08/15 14:25:36;;;;;;;6.95;6.25;;;;;;;;;;4997076;28;20375;-85
2022/08/15 14:28:07;;;;;;;7.32;6.10;;;;;;;;;;5001149;28;20049;-86
2022/08/15 14:30:34;;;;;;;6.68;6.07;;;;;;;;;;4999933;28;20041;-85
2022/08/15 14:33:00;;;;;;;6.82;5.80;;;;;;;;;;4985881;28;20498;-84
2022/08/15 14:35:27;;;;;;;6.78;6.07;;;;;;;;;;4994037;28;20038;-85
2022/08/15 14:37:55;;;;;;;6.78;6.13;;;;;;;;;;4995426;28;20031;-83
2022/08/15 14:40:30;;;;;;;7.35;6.65;;;;;;;;;;5000502;28;20041;-83
2022/08/15 14:42:57;;;;;;;8.88;6.47;;;;;;;;;;4998169;28;20029;-82
2022/08/15 14:45:23;;;;;;;6.93;6.30;;;;;;;;;;4997939;28;20054;-84
2022/08/15 14:48:15;;;;;;;8.88;6.43;;;;;;;;;;4992805;28;20117;-85
2022/08/15 14:50:42;;;;;;;7.05;6.25;;;;;;;;;;4966968;28;20038;-83
2022/08/15 14:53:13;;;;;;;8.38;7.00;;;;;;;;;;4982397;28;20633;-85
2022/08/15 14:55:42;;;;;;;;;;;;;;;;;;4963307;28;20031;-84
2022/08/15 14:58:20;;;;;;;7.40;6.68;;;;;;;;;;4984084;28;20288;-83
2022/08/15 15:00:49;;;;;;;7.60;6.90;;;;;;;;;;4980499;28;20042;-82
2022/08/15 15:03:24;;;;;;;7.57;6.78;;;;;;;;;;4972624;28;20478;-82
2022/08/15 15:05:52;;;;;;;7.60;6.90;;;;;;;;;;4981029;28;20045;-86
2022/08/15 15:08:21;;;;;;;8.05;6.72;;;;;;;;;;4967239;28;20105;-86
2022/08/15 15:10:47;;;;;;;7.47;6.40;;;;;;;;;;4957145;28;20031;-85
2022/08/15 15:13:18;;;;;;;7.22;6.53;;;;;;;;;;4966032;28;20034;-84